DFFD/OUA METAR and TAF weather

Enter ICAO airport designator
Station Type Date Time Source
DFFD METAR 2020/06/06 21:00 UTC NOAA

DFFD 062100Z 26005KT 230V290 CAVOK 30/23 Q1014 NOSIG


Station Type Date Time Source
DFFD Decoded METAR 2020/06/06 21:00 UTC NOAA

Ouagadougou, Burkina Faso (DFFD) 12-21N 001-31W 306M
Jun 06, 2020 - 05:00 PM EDT / 2020.06.06 2100 UTC
Wind: from the W (260 degrees) at 6 MPH (5 KT) (direction variable):0
Visibility: greater than 7 mile(s):0
Temperature: 86 F (30 C)
Heat index: 93.4 F (34.1 C):1
Dew Point: 73 F (23 C)
Relative Humidity: 66%
Pressure (altimeter): 29.94 in. Hg (1014 hPa)
ob: DFFD 062100Z 26005KT 230V290 CAVOK 30/23 Q1014 NOSIG
cycle: 21

Station Type Date Time Source
DFFD TAF 2020/06/06 18:06 UTC NOAA

TAF TAF DFFD 061700Z 0618/0724 20008KT 9999 FEW026 PROB30
TEMPO 0620/0702 TS SCT026 FEW036CB
TEMPO 0715/0724 4000 TSRA SCT026 FEW036CB

Example: see airport list